Details for Air Canada Jazz at CYUL




Go Back


Latest METAR
Local Time

CYUL 221100Z 30006KT 15SM FEW035 FEW250 10/03 A3011 RMK SC1CI1 SC TR PRESRR SLP197
22/09/2018, 07:12:34

Description
Results
Air Canada Jazz Logo
Number of Pilots based at CYUL
0 Pilots Based here
Number of Air Canada Jazz Flights Departed from CYUL
0 Flights Departed
Number of Air Canada Jazz Flights Arrived at CYUL
1 Flights Arrived
Number of Air Canada Jazz Schedules Departing from CYUL
67 Schedules
Number of Air Canada Jazz Schedules Arriving at CYUL
65 Schedules
Number of Air Canada Jazz Schedules Departing from CYUL availible today
50 Schedules Today
Number of Air Canada Jazz Schedules Arriving at CYUL availible today
54 Schedules Today
Average Landing Rate at CYUL
-204 fpm
Air Canada Jazz Average Landing Rate at CYUL
-155 fpm
Total Fuel Purchased at CYUL by Air Canada Jazz
0.00 kgs / 0.00 lbs

Pilots Based at CYUL


Pilot ID
Pilot Name
Pilot Rank
No. of Flights
No. of Flying Hours
There are no pilots assigned to this hub!   Will you be the first?
Content